createdAt,value
2023-03-29T00:01:03.728Z,505.00
2023-03-29T00:05:03.696Z,506.00
2023-03-29T00:09:03.816Z,503.00
2023-03-29T00:13:03.941Z,507.00
2023-03-29T00:17:04.135Z,502.00
2023-03-29T00:21:04.550Z,499.00
2023-03-29T00:25:04.420Z,495.00
2023-03-29T00:29:04.589Z,494.00
2023-03-29T00:33:04.796Z,494.00
2023-03-29T00:37:04.931Z,504.00
2023-03-29T00:41:05.167Z,500.00
2023-03-29T00:45:05.213Z,499.00
2023-03-29T00:49:05.349Z,497.00
2023-03-29T00:53:05.557Z,502.00
2023-03-29T00:57:05.725Z,503.00
2023-03-29T01:01:05.842Z,504.00
2023-03-29T01:05:06.034Z,503.00
2023-03-29T01:09:06.182Z,500.00
2023-03-29T01:13:06.320Z,505.00
2023-03-29T01:17:06.498Z,504.00
2023-03-29T01:21:06.743Z,508.00
2023-03-29T01:25:06.814Z,507.00
2023-03-29T01:29:07.000Z,505.00
2023-03-29T01:33:07.257Z,504.00
2023-03-29T01:37:07.341Z,500.00
2023-03-29T01:41:07.519Z,494.00
2023-03-29T01:45:07.693Z,495.00
2023-03-29T01:49:07.861Z,495.00
2023-03-29T01:53:08.066Z,496.00
2023-03-29T01:57:09.056Z,495.00
2023-03-29T02:01:08.465Z,494.00
2023-03-29T02:05:08.557Z,489.00
2023-03-29T02:09:08.711Z,490.00
2023-03-29T02:13:08.896Z,491.00
2023-03-29T02:17:09.102Z,491.00
2023-03-29T02:21:09.223Z,490.00
2023-03-29T02:25:09.446Z,490.00
2023-03-29T02:29:09.584Z,489.00
2023-03-29T02:33:09.823Z,493.00
2023-03-29T02:37:09.990Z,492.00
2023-03-29T02:41:10.174Z,492.00
2023-03-29T02:45:10.396Z,494.00
2023-03-29T02:49:10.567Z,496.00
2023-03-29T02:53:10.792Z,496.00
2023-03-29T02:57:11.065Z,497.00
2023-03-29T03:01:11.188Z,500.00
2023-03-29T03:05:11.384Z,495.00
2023-03-29T03:09:11.609Z,491.00
2023-03-29T03:13:11.812Z,491.00
2023-03-29T03:17:12.016Z,487.00
2023-03-29T03:21:12.205Z,490.00
2023-03-29T03:25:12.392Z,489.00
2023-03-29T03:29:12.618Z,489.00
2023-03-29T03:33:12.807Z,485.00
2023-03-29T03:37:13.015Z,488.00
2023-03-29T03:41:13.208Z,491.00
2023-03-29T03:45:13.447Z,490.00
2023-03-29T03:49:13.623Z,491.00
2023-03-29T03:53:13.809Z,489.00
2023-03-29T03:57:14.112Z,493.00
2023-03-29T04:01:14.294Z,489.00
2023-03-29T04:05:14.448Z,482.00
2023-03-29T04:09:14.678Z,486.00
2023-03-29T04:13:14.900Z,484.00
2023-03-29T04:17:15.136Z,481.00
2023-03-29T04:21:15.076Z,480.00
2023-03-29T04:25:15.051Z,482.00
2023-03-29T04:29:15.070Z,479.00
2023-03-29T04:33:14.969Z,480.00
2023-03-29T04:37:14.918Z,482.00
2023-03-29T04:41:14.920Z,481.00
2023-03-29T04:45:14.904Z,482.00
2023-03-29T04:49:14.794Z,482.00
2023-03-29T04:53:14.754Z,476.00
2023-03-29T04:57:14.826Z,478.00
2023-03-29T05:01:14.736Z,481.00
2023-03-29T05:05:14.687Z,479.00
2023-03-29T05:09:14.765Z,478.00
2023-03-29T05:13:14.608Z,482.00
2023-03-29T05:17:14.586Z,476.00
2023-03-29T05:21:15.112Z,474.00
2023-03-29T05:25:14.533Z,474.00
2023-03-29T05:29:14.449Z,476.00
2023-03-29T05:33:14.439Z,472.00
2023-03-29T05:37:14.441Z,469.00
2023-03-29T05:41:14.712Z,472.00
2023-03-29T05:45:14.765Z,558.00
2023-03-29T05:49:14.996Z,560.00
2023-03-29T05:53:15.625Z,539.00
2023-03-29T05:57:15.412Z,551.00
2023-03-29T06:01:15.656Z,594.00
2023-03-29T06:05:15.779Z,598.00
2023-03-29T06:09:16.148Z,651.00
2023-03-29T06:13:16.209Z,655.00
2023-03-29T06:17:16.431Z,663.00
2023-03-29T06:21:16.581Z,652.00
2023-03-29T06:25:16.797Z,643.00
2023-03-29T06:29:17.003Z,638.00
2023-03-29T06:33:17.221Z,637.00
2023-03-29T06:37:17.378Z,635.00
2023-03-29T06:41:17.583Z,644.00
2023-03-29T06:45:17.778Z,658.00
2023-03-29T06:49:18.161Z,664.00
2023-03-29T06:53:18.171Z,668.00
2023-03-29T06:57:18.433Z,672.00
2023-03-29T07:01:18.510Z,763.00
2023-03-29T07:05:18.885Z,773.00
2023-03-29T07:09:19.487Z,795.00
2023-03-29T07:13:19.669Z,820.00
2023-03-29T07:17:19.119Z,830.00
2023-03-29T07:21:19.208Z,852.00
2023-03-29T07:25:19.328Z,859.00
2023-03-29T07:29:19.719Z,870.00
2023-03-29T07:33:19.753Z,904.00
2023-03-29T07:37:19.709Z,921.00
2023-03-29T07:41:20.202Z,1023.00
2023-03-29T07:45:20.206Z,1140.00
2023-03-29T07:49:22.276Z,1212.00
2023-03-29T07:53:19.871Z,1279.00
2023-03-29T07:57:19.877Z,1354.00
2023-03-29T08:01:20.255Z,1439.00
2023-03-29T08:05:26.256Z,1492.00
2023-03-29T08:09:20.998Z,1550.00
2023-03-29T08:13:19.936Z,1613.00
2023-03-29T08:17:19.903Z,1669.00
2023-03-29T08:21:19.867Z,1724.00
2023-03-29T08:25:19.830Z,1779.00
2023-03-29T08:29:19.764Z,1840.00
2023-03-29T08:33:19.801Z,1899.00
2023-03-29T08:37:19.745Z,1932.00
2023-03-29T08:41:19.736Z,1989.00
2023-03-29T08:45:19.640Z,1984.00
2023-03-29T08:49:19.716Z,2037.00
2023-03-29T08:53:19.731Z,2114.00
2023-03-29T08:57:19.627Z,2155.00
2023-03-29T09:01:19.550Z,2123.00
2023-03-29T09:05:19.573Z,2214.00
2023-03-29T09:09:19.722Z,2203.00
2023-03-29T09:13:20.319Z,2173.00
2023-03-29T09:17:19.813Z,2151.00
2023-03-29T09:21:19.850Z,2228.00
2023-03-29T09:25:19.912Z,2217.00
2023-03-29T09:29:20.217Z,2343.00
2023-03-29T09:33:19.895Z,2199.00
2023-03-29T09:37:19.937Z,1814.00
2023-03-29T09:41:20.258Z,1748.00
2023-03-29T09:45:20.242Z,1514.00
2023-03-29T09:49:20.269Z,1689.00
2023-03-29T09:53:20.246Z,1403.00
2023-03-29T09:57:20.317Z,1257.00
2023-03-29T10:01:20.392Z,1364.00
2023-03-29T10:05:20.327Z,1311.00
2023-03-29T10:09:20.387Z,1308.00
2023-03-29T10:13:20.440Z,1350.00
2023-03-29T10:17:20.582Z,1211.00
2023-03-29T10:21:20.749Z,1193.00
2023-03-29T10:25:20.911Z,1503.00
2023-03-29T10:29:21.283Z,1314.00
2023-03-29T10:33:21.319Z,1156.00
2023-03-29T10:37:21.760Z,1162.00
2023-03-29T10:41:21.291Z,1094.00
2023-03-29T10:45:21.288Z,1096.00
2023-03-29T10:49:21.154Z,1146.00
2023-03-29T10:53:21.147Z,1045.00
2023-03-29T10:57:22.860Z,1096.00
2023-03-29T11:01:21.165Z,1182.00
2023-03-29T11:05:20.996Z,1185.00
2023-03-29T11:09:21.002Z,1238.00
2023-03-29T11:13:20.954Z,1233.00
2023-03-29T11:17:21.373Z,1021.00
2023-03-29T11:21:20.906Z,1168.00
2023-03-29T11:25:20.838Z,1155.00
2023-03-29T11:29:20.837Z,1134.00
2023-03-29T11:33:20.820Z,1137.00
2023-03-29T11:37:20.749Z,1140.00
2023-03-29T11:41:20.705Z,913.00
2023-03-29T11:45:20.641Z,815.00
2023-03-29T11:49:20.616Z,784.00
2023-03-29T11:53:20.823Z,745.00
2023-03-29T11:57:20.671Z,714.00
2023-03-29T12:01:20.641Z,681.00
2023-03-29T12:05:20.676Z,647.00
2023-03-29T12:09:20.750Z,618.00
2023-03-29T12:13:20.847Z,593.00
2023-03-29T12:17:20.917Z,565.00
2023-03-29T12:21:21.069Z,546.00
2023-03-29T12:25:22.790Z,529.00
2023-03-29T12:29:21.311Z,510.00
2023-03-29T12:33:21.837Z,498.00
2023-03-29T12:37:21.608Z,487.00
2023-03-29T12:41:21.793Z,475.00
2023-03-29T12:45:21.905Z,462.00
2023-03-29T12:49:22.043Z,461.00
2023-03-29T12:53:22.177Z,462.00
2023-03-29T12:57:22.393Z,466.00
2023-03-29T13:01:22.583Z,475.00
2023-03-29T13:05:22.576Z,482.00
2023-03-29T13:09:22.726Z,486.00
2023-03-29T13:13:22.841Z,491.00
2023-03-29T13:17:23.023Z,495.00
2023-03-29T13:21:23.120Z,471.00
2023-03-29T13:25:23.303Z,469.00
2023-03-29T13:29:23.489Z,483.00
2023-03-29T13:33:23.600Z,501.00
2023-03-29T13:37:23.735Z,524.00
2023-03-29T13:41:23.897Z,533.00
2023-03-29T13:45:23.997Z,540.00
2023-03-29T13:49:24.176Z,554.00
2023-03-29T13:53:24.324Z,563.00
2023-03-29T13:57:24.547Z,566.00
2023-03-29T14:01:24.689Z,570.00
2023-03-29T14:05:24.769Z,570.00
2023-03-29T14:09:24.920Z,569.00
2023-03-29T14:13:25.062Z,572.00
2023-03-29T14:17:25.252Z,574.00
2023-03-29T14:21:25.360Z,576.00
2023-03-29T14:25:25.482Z,577.00
2023-03-29T14:29:25.701Z,577.00
2023-03-29T14:33:25.807Z,570.00
2023-03-29T14:37:25.930Z,569.00
2023-03-29T14:41:26.039Z,571.00
2023-03-29T14:45:26.176Z,573.00
2023-03-29T14:49:26.300Z,575.00
2023-03-29T14:53:26.407Z,573.00
2023-03-29T14:57:26.721Z,572.00
2023-03-29T15:01:26.719Z,571.00
2023-03-29T15:05:26.802Z,571.00
2023-03-29T15:09:26.939Z,568.00
2023-03-29T15:13:27.045Z,570.00
2023-03-29T15:17:33.481Z,577.00
2023-03-29T15:21:28.106Z,576.00
2023-03-29T15:25:27.124Z,572.00
2023-03-29T15:29:27.006Z,573.00
2023-03-29T15:33:27.186Z,569.00
2023-03-29T15:37:27.094Z,564.00
2023-03-29T15:41:27.304Z,565.00
2023-03-29T15:45:27.314Z,563.00
2023-03-29T15:49:27.500Z,558.00
2023-03-29T15:53:27.563Z,557.00
2023-03-29T15:57:27.842Z,553.00
2023-03-29T16:01:27.848Z,548.00
2023-03-29T16:05:27.935Z,549.00
2023-03-29T16:09:28.068Z,549.00
2023-03-29T16:13:28.213Z,550.00
2023-03-29T16:17:28.364Z,545.00
2023-03-29T16:21:28.457Z,540.00
2023-03-29T16:25:28.585Z,543.00
2023-03-29T16:29:28.712Z,543.00
2023-03-29T16:33:28.843Z,544.00
2023-03-29T16:37:28.961Z,539.00
2023-03-29T16:41:29.077Z,538.00
2023-03-29T16:45:29.645Z,536.00
2023-03-29T16:49:29.327Z,533.00
2023-03-29T16:53:29.441Z,533.00
2023-03-29T16:57:29.676Z,531.00
2023-03-29T17:01:29.756Z,529.00
2023-03-29T17:05:29.858Z,524.00
2023-03-29T17:09:30.073Z,527.00
2023-03-29T17:13:30.076Z,527.00
2023-03-29T17:17:30.173Z,529.00
2023-03-29T17:21:30.271Z,529.00
2023-03-29T17:25:30.381Z,530.00
2023-03-29T17:29:30.504Z,531.00
2023-03-29T17:33:30.656Z,524.00
2023-03-29T17:37:30.737Z,525.00
2023-03-29T17:41:31.127Z,522.00
2023-03-29T17:45:30.968Z,523.00
2023-03-29T17:49:31.077Z,524.00
2023-03-29T17:53:31.210Z,521.00
2023-03-29T17:57:31.329Z,517.00
2023-03-29T18:01:31.451Z,516.00
2023-03-29T18:05:31.577Z,518.00
2023-03-29T18:09:31.681Z,516.00
2023-03-29T18:13:31.780Z,516.00
2023-03-29T18:17:31.956Z,512.00
2023-03-29T18:21:32.049Z,508.00
2023-03-29T18:25:32.165Z,503.00
2023-03-29T18:29:32.274Z,505.00
2023-03-29T18:33:32.409Z,503.00
2023-03-29T18:37:32.495Z,502.00
2023-03-29T18:41:32.666Z,503.00
2023-03-29T18:45:32.804Z,497.00
2023-03-29T18:49:32.930Z,494.00
2023-03-29T18:53:33.052Z,492.00
2023-03-29T18:57:33.215Z,495.00
2023-03-29T19:01:33.348Z,493.00
2023-03-29T19:05:33.447Z,490.00
2023-03-29T19:09:33.588Z,488.00
2023-03-29T19:13:33.719Z,485.00
2023-03-29T19:17:33.893Z,490.00
2023-03-29T19:21:34.022Z,489.00
2023-03-29T19:25:34.532Z,486.00
2023-03-29T19:29:34.341Z,484.00
2023-03-29T19:33:34.434Z,482.00
2023-03-29T19:37:34.654Z,483.00
2023-03-29T19:41:34.765Z,478.00
2023-03-29T19:45:34.887Z,480.00
2023-03-29T19:49:35.021Z,481.00
2023-03-29T19:53:38.399Z,480.00
2023-03-29T19:57:35.196Z,482.00
2023-03-29T20:01:35.141Z,480.00
2023-03-29T20:05:35.090Z,479.00
2023-03-29T20:09:35.522Z,478.00
2023-03-29T20:17:34.983Z,476.00
2023-03-29T20:21:35.153Z,473.00
2023-03-29T20:25:35.255Z,473.00
2023-03-29T20:29:35.422Z,470.00
2023-03-29T20:33:35.566Z,469.00
2023-03-29T20:37:35.723Z,471.00
2023-03-29T20:41:35.857Z,473.00
2023-03-29T20:45:46.369Z,469.00
2023-03-29T20:49:37.214Z,467.00
2023-03-29T20:53:35.959Z,469.00
2023-03-29T20:57:35.961Z,461.00
2023-03-29T21:01:36.107Z,462.00
2023-03-29T21:05:36.207Z,459.00
2023-03-29T21:09:36.376Z,460.00
2023-03-29T21:13:37.325Z,456.00
2023-03-29T21:17:36.644Z,457.00
2023-03-29T21:21:36.774Z,455.00
2023-03-29T21:25:36.899Z,456.00
2023-03-29T21:29:37.059Z,455.00
2023-03-29T21:33:37.187Z,456.00
2023-03-29T21:37:37.329Z,450.00
2023-03-29T21:41:37.507Z,454.00
2023-03-29T21:45:37.685Z,453.00
2023-03-29T21:49:37.788Z,449.00
2023-03-29T21:53:37.949Z,457.00
2023-03-29T21:57:38.119Z,457.00
2023-03-29T22:01:38.258Z,455.00
2023-03-29T22:05:38.409Z,455.00
2023-03-29T22:09:38.560Z,457.00
2023-03-29T22:13:38.709Z,460.00
2023-03-29T22:17:38.889Z,459.00
2023-03-29T22:21:38.956Z,456.00
2023-03-29T22:25:39.081Z,453.00
2023-03-29T22:29:39.218Z,449.00
2023-03-29T22:33:39.363Z,453.00
2023-03-29T22:37:39.497Z,450.00
2023-03-29T22:41:39.647Z,447.00
2023-03-29T22:45:39.779Z,445.00
2023-03-29T22:49:39.938Z,442.00
2023-03-29T22:53:40.062Z,442.00
2023-03-29T22:57:40.194Z,444.00
2023-03-29T23:01:40.357Z,444.00
2023-03-29T23:05:40.469Z,448.00
2023-03-29T23:09:40.610Z,447.00
2023-03-29T23:13:40.752Z,449.00
2023-03-29T23:17:40.941Z,446.00
2023-03-29T23:21:41.061Z,445.00
2023-03-29T23:25:41.166Z,446.00
2023-03-29T23:29:41.307Z,441.00
2023-03-29T23:33:41.439Z,443.00
2023-03-29T23:37:41.567Z,447.00
2023-03-29T23:41:41.753Z,444.00
2023-03-29T23:45:41.869Z,445.00
2023-03-29T23:49:42.050Z,443.00
2023-03-29T23:53:42.213Z,443.00
2023-03-29T23:57:42.275Z,438.00
